Time;durP1;ratioP1;P1;durP2;ratioP2;P2;SDS_P1;SDS_P2;PMS_P1;PMS_P2;Temp;Humidity;BMP_temperature;BMP_pressure;BME280_temperature;BME280_humidity;BME280_pressure;Samples;Min_cycle;Max_cycle;Signal;HPM_P1;HPM_P2
2022/01/30 00:01:41;;;;;;;1.87;1.50;;;;;;;6.46;100.00;95935.69;5099114;28;20191;-68
2022/01/30 00:04:06;;;;;;;1.87;1.50;;;;;;;6.46;100.00;95930.25;5099368;28;20200;-55
2022/01/30 00:06:32;;;;;;;1.40;1.30;;;;;;;6.47;100.00;95925.59;5099576;28;20218;-51
2022/01/30 00:08:57;;;;;;;1.70;1.53;;;;;;;6.44;100.00;95920.91;5099440;28;20196;-50
2022/01/30 00:11:28;;;;;;;1.93;1.33;;;;;;;6.40;100.00;95920.84;5115600;28;20193;-54
2022/01/30 00:13:53;;;;;;;2.23;1.40;;;;;;;6.41;100.00;95925.13;5116229;28;20193;-53
2022/01/30 00:16:21;;;;;;;1.57;1.40;;;;;;;6.38;100.00;95919.66;5098642;28;20366;-52
2022/01/30 00:18:59;;;;;;;1.47;1.37;;;;;;;6.42;100.00;95915.06;5115757;28;20666;-46
2022/01/30 00:24:02;;;;;;;1.70;1.37;;;;;;;6.37;100.00;95929.72;5116510;28;20207;-60
2022/01/30 00:26:31;;;;;;;1.57;1.47;;;;;;;6.38;100.00;95916.94;5115406;28;20549;-60
2022/01/30 00:28:57;;;;;;;1.37;1.27;;;;;;;6.35;100.00;95923.84;5098550;28;20191;-60
2022/01/30 00:31:24;;;;;;;1.43;1.33;;;;;;;6.35;100.00;95910.28;5099145;28;20191;-60
2022/01/30 00:33:49;;;;;;;1.40;1.30;;;;;;;6.34;100.00;95916.13;5098845;28;20278;-60
2022/01/30 00:36:15;;;;;;;2.03;1.50;;;;;;;6.29;100.00;95917.19;5098358;28;20217;-66
2022/01/30 00:38:41;;;;;;;1.30;1.20;;;;;;;6.28;100.00;95917.56;5115323;28;20186;-70
2022/01/30 00:41:07;;;;;;;1.73;1.40;;;;;;;6.37;100.00;95909.94;5098551;28;20178;-53
2022/01/30 00:43:32;;;;;;;1.83;1.20;;;;;;;6.38;100.00;95925.09;5115578;28;20186;-54
2022/01/30 00:45:58;;;;;;;1.37;1.27;;;;;;;6.37;100.00;95918.88;5098645;28;20183;-49
2022/01/30 00:48:23;;;;;;;1.63;1.10;;;;;;;6.37;100.00;95909.94;5097754;28;20187;-50
2022/01/30 00:50:48;;;;;;;1.90;1.20;;;;;;;6.40;100.00;95909.22;5098458;28;20183;-53
2022/01/30 00:53:15;;;;;;;1.20;1.10;;;;;;;6.43;100.00;95897.66;5098496;28;20197;-53
2022/01/30 00:55:43;;;;;;;1.17;1.00;;;;;;;6.40;100.00;95904.59;5099073;28;20179;-70
2022/01/30 00:58:09;;;;;;;1.43;1.20;;;;;;;6.39;100.00;95896.81;5115337;28;20182;-70
2022/01/30 01:00:35;;;;;;;1.03;1.03;;;;;;;6.39;100.00;95894.09;5098376;28;20234;-70
2022/01/30 01:03:01;;;;;;;1.40;1.10;;;;;;;6.41;100.00;95905.38;5098710;28;20202;-70
2022/01/30 01:05:28;;;;;;;1.23;1.13;;;;;;;6.43;100.00;95912.00;5116090;28;20213;-71
2022/01/30 01:07:56;;;;;;;1.43;1.27;;;;;;;6.45;100.00;95900.78;5097930;28;20218;-70
2022/01/30 01:13:05;;;;;;;1.07;0.97;;;;;;;6.40;100.00;95912.72;5115985;28;20258;-54
2022/01/30 01:23:21;;;;;;;1.13;1.03;;;;;;;6.37;100.00;95893.66;5116159;28;20195;-55
2022/01/30 01:23:46;;;;;;;1.00;0.90;;;;;;;6.36;100.00;95892.91;5116003;28;20295;-55
2022/01/30 01:26:13;;;;;;;1.23;1.13;;;;;;;6.34;100.00;95905.25;5097731;28;20535;-55
2022/01/30 01:28:39;;;;;;;0.97;0.97;;;;;;;6.33;100.00;95893.63;5097329;28;20189;-55
2022/01/30 01:31:04;;;;;;;1.93;1.00;;;;;;;6.37;100.00;95926.22;5097578;28;20233;-53
2022/01/30 01:36:14;;;;;;;0.80;0.80;;;;;;;6.37;100.00;95909.94;5115633;28;20623;-47
2022/01/30 01:38:45;;;;;;;1.00;1.00;;;;;;;6.40;100.00;95895.66;5097993;28;20219;-46
2022/01/30 01:41:11;;;;;;;2.17;0.93;;;;;;;6.36;100.00;95898.31;5097775;28;20189;-47
2022/01/30 01:43:38;;;;;;;0.73;0.73;;;;;;;6.41;100.00;95900.72;5098168;28;20190;-47
2022/01/30 01:46:11;;;;;;;0.90;0.90;;;;;;;6.40;100.00;95911.94;5097242;28;20188;-45
2022/01/30 01:48:36;;;;;;;1.00;0.90;;;;;;;6.43;100.00;95900.34;5097701;28;20181;-47
2022/01/30 01:51:07;;;;;;;0.80;0.80;;;;;;;6.44;100.00;95910.84;5114193;28;20184;-56
2022/01/30 01:53:33;;;;;;;0.60;0.60;;;;;;;6.47;100.00;95903.91;5114617;28;20240;-55
2022/01/30 01:55:58;;;;;;;0.70;0.70;;;;;;;6.44;100.00;95905.41;5097487;28;20177;-55
2022/01/30 01:58:25;;;;;;;1.23;0.87;;;;;;;6.44;100.00;95904.63;5097113;28;20184;-55
2022/01/30 02:00:50;;;;;;;0.80;0.80;;;;;;;6.43;100.00;95903.88;5095901;28;20182;-50
2022/01/30 02:03:18;;;;;;;1.10;1.00;;;;;;;6.41;100.00;95894.53;5097158;28;20676;-50
2022/01/30 02:05:48;;;;;;;0.77;0.77;;;;;;;6.39;100.00;95880.53;5097453;28;20215;-49
2022/01/30 02:24:45;;;;;;;2.00;1.03;;;;;;;6.39;100.00;95885.97;5114875;28;20210;-54
2022/01/30 02:27:17;;;;;;;1.10;0.80;;;;;;;6.40;100.00;95887.53;5097177;28;20181;-47
2022/01/30 02:29:42;;;;;;;0.80;0.80;;;;;;;6.43;100.00;95873.22;5096394;28;20212;-50
2022/01/30 02:32:08;;;;;;;0.90;0.90;;;;;;;6.41;100.00;95861.97;5113664;28;20190;-54
2022/01/30 02:34:33;;;;;;;0.70;0.70;;;;;;;6.40;100.00;95871.25;5097075;28;20178;-54
2022/01/30 02:36:59;;;;;;;0.87;0.87;;;;;;;6.37;100.00;95867.34;5096738;28;20194;-55
2022/01/30 02:39:25;;;;;;;0.80;0.80;;;;;;;6.36;100.00;95854.13;5113508;28;20181;-54
2022/01/30 02:41:52;;;;;;;0.70;0.70;;;;;;;6.44;100.00;95851.16;5097308;28;20192;-53
2022/01/30 02:46:52;;;;;;;0.80;0.80;;;;;;;6.38;100.00;95855.34;5114572;28;20184;-55
2022/01/30 02:51:50;;;;;;;0.80;0.80;;;;;;;6.37;100.00;95861.13;5114181;28;20183;-74
2022/01/30 02:54:16;;;;;;;0.73;0.73;;;;;;;6.34;100.00;95851.03;5113658;28;20188;-74
2022/01/30 02:56:42;;;;;;;0.70;0.70;;;;;;;6.31;100.00;95855.22;5096180;28;20236;-74
2022/01/30 02:59:07;;;;;;;0.70;0.70;;;;;;;6.29;100.00;95859.44;5113310;28;20218;-74
2022/01/30 03:01:33;;;;;;;0.70;0.70;;;;;;;6.29;100.00;95862.16;5096322;28;20191;-73
2022/01/30 03:03:58;;;;;;;0.80;0.80;;;;;;;6.26;100.00;95862.88;5095957;28;20224;-53
2022/01/30 03:06:24;;;;;;;0.87;0.83;;;;;;;6.29;100.00;95851.31;5096253;28;20212;-54
2022/01/30 03:08:49;;;;;;;0.77;0.77;;;;;;;6.28;100.00;95857.91;5095966;28;20215;-55
2022/01/30 03:11:15;;;;;;;0.80;0.80;;;;;;;6.23;100.00;95858.22;5096092;28;20199;-54
2022/01/30 03:13:40;;;;;;;0.70;0.70;;;;;;;6.31;100.00;95846.31;5117731;28;20184;-55
2022/01/30 03:16:06;;;;;;;0.70;0.70;;;;;;;6.24;100.00;95840.78;5099740;28;20195;-54
2022/01/30 03:18:31;;;;;;;1.17;1.10;;;;;;;6.21;100.00;95846.94;5099784;28;20318;-55
2022/01/30 03:20:57;;;;;;;0.80;0.80;;;;;;;6.22;100.00;95848.50;5100148;28;20277;-54
2022/01/30 03:23:23;;;;;;;0.83;0.83;;;;;;;6.12;100.00;95860.72;5099736;28;20189;-55
2022/01/30 03:25:56;;;;;;;1.30;1.00;;;;;;;6.15;100.00;95864.66;5099392;28;20312;-54
2022/01/30 03:28:22;;;;;;;1.20;0.93;;;;;;;6.21;100.00;95865.91;5116571;28;20227;-55
2022/01/30 03:30:52;;;;;;;0.80;0.80;;;;;;;6.21;100.00;95871.34;5099232;28;20236;-55
2022/01/30 03:33:18;;;;;;;1.03;0.80;;;;;;;6.23;100.00;95871.78;5117078;28;20187;-55
2022/01/30 03:35:43;;;;;;;0.90;0.90;;;;;;;6.23;100.00;95872.53;5116411;28;20184;-56
2022/01/30 03:38:08;;;;;;;1.50;0.90;;;;;;;6.20;100.00;95867.06;5099797;28;20184;-52
2022/01/30 03:40:34;;;;;;;0.87;0.87;;;;;;;6.15;100.00;95875.50;5099384;28;20186;-53
2022/01/30 03:42:59;;;;;;;1.20;0.90;;;;;;;6.13;100.00;95877.78;5099362;28;20192;-58
2022/01/30 03:45:25;;;;;;;1.10;1.00;;;;;;;6.13;100.00;95877.78;5099116;28;20207;-59
2022/01/30 03:47:52;;;;;;;1.13;1.00;;;;;;;6.13;100.00;95883.22;5099254;28;20207;-59
2022/01/30 03:50:17;;;;;;;1.10;1.00;;;;;;;6.14;100.00;95869.31;5098933;28;20197;-59
2022/01/30 03:52:42;;;;;;;0.90;0.90;;;;;;;6.19;100.00;95892.59;5099792;28;20282;-59
2022/01/30 03:55:08;;;;;;;0.70;0.70;;;;;;;6.23;100.00;95898.88;5116069;28;20558;-60
2022/01/30 03:57:33;;;;;;;0.90;0.90;;;;;;;6.20;100.00;95894.19;5116244;28;20614;-60
2022/01/30 03:59:59;;;;;;;1.43;0.90;;;;;;;6.19;100.00;95896.09;5098917;28;20180;-54
2022/01/30 04:02:24;;;;;;;0.90;0.90;;;;;;;6.21;100.00;95901.16;5099030;28;20176;-53
2022/01/30 04:04:49;;;;;;;1.00;0.90;;;;;;;6.16;100.00;95902.25;5098953;28;20243;-53
2022/01/30 04:07:15;;;;;;;0.90;0.90;;;;;;;6.16;100.00;95893.34;5117021;28;20185;-54
2022/01/30 04:09:40;;;;;;;0.90;0.90;;;;;;;6.11;100.00;95890.91;5098784;28;20203;-54
2022/01/30 04:12:06;;;;;;;1.17;0.93;;;;;;;6.09;100.00;95899.41;5099378;28;20193;-53
2022/01/30 04:14:32;;;;;;;1.20;0.90;;;;;;;6.07;100.00;95892.78;5115786;28;20193;-53
2022/01/30 04:16:57;;;;;;;1.20;1.10;;;;;;;6.04;100.00;95894.31;5116181;28;20189;-71
2022/01/30 04:19:23;;;;;;;1.00;0.90;;;;;;;6.06;100.00;95892.03;5098892;28;20260;-46
2022/01/30 04:21:48;;;;;;;1.07;0.97;;;;;;;6.08;100.00;95891.63;5099068;28;20185;-56
2022/01/30 04:24:13;;;;;;;1.00;0.90;;;;;;;6.09;100.00;95887.81;5098157;28;20291;-56
2022/01/30 04:26:39;;;;;;;1.07;0.97;;;;;;;6.07;100.00;95884.66;5098623;28;20219;-55
2022/01/30 04:29:04;;;;;;;1.07;0.97;;;;;;;6.05;100.00;95881.53;5098745;28;20265;-56
2022/01/30 04:31:30;;;;;;;0.90;0.90;;;;;;;5.99;100.00;95883.78;5098833;28;20271;-55
2022/01/30 04:33:56;;;;;;;1.33;1.10;;;;;;;5.94;100.00;95902.25;5098304;28;20192;-56
2022/01/30 04:36:27;;;;;;;0.90;0.90;;;;;;;5.97;100.00;95896.88;5116423;28;20179;-53
2022/01/30 04:57:23;;;;;;;1.20;1.10;;;;;;;6.11;100.00;95904.47;5116141;28;20234;-54
2022/01/30 05:00:05;;;;;;;1.60;1.30;;;;;;;6.12;100.00;95914.19;5115111;28;20707;-53
2022/01/30 05:02:49;;;;;;;1.77;1.30;;;;;;;6.06;100.00;95929.19;5115398;28;20239;-55
2022/01/30 05:07:40;;;;;;;1.27;1.17;;;;;;;6.05;100.00;95939.22;5116408;28;20186;-55
2022/01/30 05:10:06;;;;;;;2.53;1.43;;;;;;;6.05;100.00;95936.50;5097711;28;20196;-53
2022/01/30 05:12:42;;;;;;;2.73;1.40;;;;;;;6.06;100.00;95934.59;5098438;28;20180;-72
2022/01/30 05:15:08;;;;;;;2.00;1.80;;;;;;;6.07;100.00;95938.88;5098690;28;20202;-51
2022/01/30 05:17:33;;;;;;;1.83;1.60;;;;;;;6.05;100.00;95936.50;5115043;28;20185;-54
2022/01/30 05:20:00;;;;;;;1.30;1.20;;;;;;;6.04;100.00;95928.75;5114850;28;20193;-54
2022/01/30 05:22:25;;;;;;;1.90;1.47;;;;;;;6.09;100.00;95933.88;5097592;28;20233;-54
2022/01/30 05:24:51;;;;;;;1.70;1.50;;;;;;;6.06;100.00;95942.72;5114977;28;20212;-53
2022/01/30 05:27:16;;;;;;;2.23;1.43;;;;;;;6.09;100.00;95936.59;5114577;28;20185;-53
2022/01/30 05:29:42;;;;;;;3.03;1.50;;;;;;;6.17;100.00;95938.28;5097383;28;20262;-54
2022/01/30 05:32:08;;;;;;;2.17;1.57;;;;;;;6.19;100.00;95935.97;5114712;28;20543;-53
2022/01/30 05:34:34;;;;;;;1.50;1.40;;;;;;;6.20;100.00;95932.91;5097045;28;20646;-54
2022/01/30 05:37:00;;;;;;;1.93;1.70;;;;;;;6.19;100.00;95942.19;5114486;28;20190;-51
2022/01/30 05:39:26;;;;;;;1.47;1.30;;;;;;;6.23;100.00;95939.56;5097651;28;20188;-51
2022/01/30 05:41:52;;;;;;;1.77;1.50;;;;;;;6.21;100.00;95944.53;5097807;28;20190;-54
2022/01/30 05:44:21;;;;;;;2.00;1.40;;;;;;;6.24;100.00;95943.81;5097380;28;20240;-53
2022/01/30 05:46:53;;;;;;;2.63;1.87;;;;;;;6.13;100.00;95945.56;5097893;28;20192;-53
2022/01/30 05:49:19;;;;;;;2.73;1.50;;;;;;;6.00;100.00;95938.75;5114443;28;20193;-61
2022/01/30 05:51:44;;;;;;;1.93;1.60;;;;;;;5.94;100.00;95951.81;5097239;28;20195;-55
2022/01/30 05:54:10;;;;;;;1.80;1.60;;;;;;;5.80;100.00;95945.31;5097225;28;20192;-53
2022/01/30 05:56:36;;;;;;;2.20;1.70;;;;;;;5.73;100.00;95950.59;5097452;28;20276;-52
2022/01/30 05:59:02;;;;;;;1.70;1.50;;;;;;;5.65;100.00;95965.16;5114072;28;20200;-53
2022/01/30 06:01:28;;;;;;;3.30;1.90;;;;;;;5.63;100.00;95951.19;5114309;28;20287;-54
2022/01/30 06:03:53;;;;;;;2.00;1.80;;;;;;;5.56;100.00;95951.03;5096876;28;20224;-55
2022/01/30 06:06:18;;;;;;;2.17;1.97;;;;;;;5.53;100.00;95957.16;5097060;28;20202;-53
2022/01/30 06:08:59;;;;;;;2.17;1.93;;;;;;;5.47;100.00;95943.13;5097632;28;20184;-65
2022/01/30 06:11:25;;;;;;;2.20;2.00;;;;;;;5.44;100.00;95951.19;5097364;28;20195;-53
2022/01/30 06:13:50;;;;;;;2.50;2.00;;;;;;;5.36;100.00;95954.91;5096927;28;20180;-54
2022/01/30 06:16:16;;;;;;;1.87;1.77;;;;;;;5.37;100.00;95956.47;5097005;28;20192;-52
2022/01/30 06:18:41;;;;;;;1.87;1.70;;;;;;;5.37;100.00;95954.53;5097279;28;20274;-52
2022/01/30 06:21:06;;;;;;;2.40;2.10;;;;;;;5.31;100.00;95955.16;5096803;28;20187;-50
2022/01/30 06:23:32;;;;;;;2.87;1.97;;;;;;;5.29;100.00;95962.88;5096539;28;20180;-53
2022/01/30 06:25:57;;;;;;;2.57;2.13;;;;;;;5.26;100.00;95958.94;5096632;28;20296;-50
2022/01/30 06:28:23;;;;;;;3.10;1.93;;;;;;;5.28;100.00;95945.81;5096840;28;20196;-53
2022/01/30 06:30:49;;;;;;;2.23;2.03;;;;;;;5.26;100.00;95958.94;5113437;28;20222;-53
2022/01/30 06:33:15;;;;;;;2.33;1.87;;;;;;;5.27;100.00;95959.72;5096637;28;20182;-55
2022/01/30 06:35:40;;;;;;;2.93;2.30;;;;;;;5.29;100.00;95955.53;5096297;28;20219;-54
2022/01/30 06:38:05;;;;;;;5.30;3.57;;;;;;;5.44;100.00;95953.91;5096327;28;20188;-53
2022/01/30 06:40:31;;;;;;;8.50;5.30;;;;;;;5.51;100.00;95964.88;5096726;28;20544;-50
2022/01/30 06:42:57;;;;;;;2.73;2.37;;;;;;;5.49;100.00;95964.44;5113645;28;20187;-57
2022/01/30 06:45:23;;;;;;;2.80;2.53;;;;;;;5.38;100.00;95966.13;5096264;28;20272;-71
2022/01/30 06:47:48;;;;;;;3.10;2.50;;;;;;;5.37;100.00;95968.06;5096076;28;20553;-57
2022/01/30 06:50:14;;;;;;;3.27;2.67;;;;;;;5.39;100.00;95981.25;5096778;28;20231;-46
2022/01/30 06:52:40;;;;;;;2.67;2.47;;;;;;;5.42;100.00;95988.66;5096727;28;20215;-45
2022/01/30 06:55:06;;;;;;;3.67;2.43;;;;;;;5.46;100.00;95984.13;5096309;28;20226;-47
2022/01/30 06:57:32;;;;;;;2.40;2.17;;;;;;;5.50;100.00;95995.81;5113059;28;20187;-55
2022/01/30 06:59:57;;;;;;;2.70;2.17;;;;;;;5.46;100.00;96003.84;5096112;28;20192;-56
2022/01/30 07:02:23;;;;;;;3.63;2.20;;;;;;;5.47;100.00;96001.94;5113173;28;20233;-52
2022/01/30 07:04:48;;;;;;;5.40;4.30;;;;;;;5.48;100.00;95998.06;5095848;28;20216;-53
2022/01/30 07:07:15;;;;;;;3.70;2.50;;;;;;;5.49;100.00;95999.63;5096627;28;20196;-56
2022/01/30 07:09:40;;;;;;;3.20;2.10;;;;;;;5.51;100.00;96000.09;5112862;28;20572;-55
2022/01/30 07:12:06;;;;;;;2.87;2.20;;;;;;;5.61;100.00;95991.41;5113563;28;20273;-56
2022/01/30 07:14:32;;;;;;;3.13;2.00;;;;;;;5.57;100.00;96009.50;5096303;28;20197;-55
2022/01/30 07:16:57;;;;;;;2.20;2.00;;;;;;;5.61;100.00;96007.66;5096160;28;20523;-54
2022/01/30 07:19:23;;;;;;;4.27;3.03;;;;;;;5.61;100.00;96015.78;5095798;28;20533;-55
2022/01/30 07:21:48;;;;;;;2.20;2.00;;;;;;;5.61;100.00;96013.84;5095971;28;20204;-57
2022/01/30 07:24:13;;;;;;;2.27;1.90;;;;;;;5.62;100.00;96020.03;5095817;28;20214;-70
2022/01/30 07:26:39;;;;;;;2.40;2.10;;;;;;;5.64;100.00;96023.16;5096180;28;20186;-68
2022/01/30 07:29:04;;;;;;;2.13;1.93;;;;;;;5.63;100.00;96024.31;5095782;28;20298;-69
2022/01/30 07:31:33;;;;;;;2.27;1.97;;;;;;;5.66;100.00;96029.81;5095710;28;20263;-69
2022/01/30 07:33:59;;;;;;;2.50;1.80;;;;;;;5.66;100.00;96031.72;5112704;28;20177;-70
2022/01/30 07:36:26;;;;;;;1.77;1.67;;;;;;;5.67;100.00;96044.94;5112679;28;20190;-75
2022/01/30 07:38:51;;;;;;;2.20;1.70;;;;;;;5.72;100.00;96031.09;5112912;28;20253;-51
2022/01/30 07:41:17;;;;;;;1.60;1.50;;;;;;;5.75;100.00;96038.50;5095633;28;20293;-52
2022/01/30 07:43:43;;;;;;;1.70;1.50;;;;;;;5.80;100.00;96037.44;5096368;28;20224;-76
2022/01/30 07:46:08;;;;;;;1.67;1.43;;;;;;;5.83;100.00;96023.22;5095679;28;20198;-77
2022/01/30 07:48:34;;;;;;;1.77;1.67;;;;;;;5.87;100.00;96048.47;5095632;28;20176;-71
2022/01/30 07:50:59;;;;;;;4.00;2.07;;;;;;;5.85;100.00;96039.91;5096243;28;20191;-81
2022/01/30 07:53:25;;;;;;;3.10;2.63;;;;;;;5.91;100.00;96033.81;5096163;28;20180;-73
2022/01/30 07:55:50;;;;;;;2.20;1.83;;;;;;;6.08;100.00;96027.97;5095548;28;20214;-77
2022/01/30 07:58:16;;;;;;;2.90;1.57;;;;;;;6.22;100.00;96013.88;5097334;28;20205;-52
2022/01/30 08:00:41;;;;;;;2.13;1.60;;;;;;;6.54;100.00;96026.09;5099417;28;20191;-51
2022/01/30 08:03:07;;;;;;;5.10;1.83;;;;;;;6.63;100.00;96013.09;5098879;28;20255;-52
2022/01/30 08:05:32;;;;;;;1.73;1.37;;;;;;;7.30;100.00;96033.91;5098840;28;20286;-50
2022/01/30 08:07:58;;;;;;;3.40;1.90;;;;;;;7.51;100.00;96033.44;5099462;28;20321;-51
2022/01/30 08:10:23;;;;;;;4.50;1.93;;;;;;;7.62;100.00;96037.88;5115572;28;20214;-49
2022/01/30 08:12:48;;;;;;;6.43;2.10;;;;;;;7.05;100.00;96024.63;5115848;28;20244;-48
2022/01/30 08:15:14;;;;;;;3.50;1.73;;;;;;;6.73;100.00;96026.03;5116316;28;20188;-66
2022/01/30 08:17:39;;;;;;;3.80;2.03;;;;;;;6.54;100.00;96045.09;5098827;28;20322;-67
2022/01/30 08:20:06;;;;;;;3.63;2.37;;;;;;;6.18;100.00;96042.88;5116081;28;20189;-55
2022/01/30 08:22:33;;;;;;;6.70;2.80;;;;;;;5.93;100.00;96057.84;5098785;28;20183;-59
2022/01/30 08:24:59;;;;;;;7.33;2.00;;;;;;;5.80;100.00;96059.13;5098641;28;20206;-60
2022/01/30 08:27:24;;;;;;;4.57;1.83;;;;;;;5.52;100.00;96080.19;5098709;28;20196;-62
2022/01/30 08:29:49;;;;;;;3.93;1.97;;;;;;;5.44;100.00;96073.03;5098363;28;20251;-61
2022/01/30 08:32:15;;;;;;;4.93;1.70;;;;;;;5.46;100.00;96079.69;5098783;28;20549;-61
2022/01/30 08:34:41;;;;;;;3.23;1.90;;;;;;;5.49;100.00;96067.34;5098724;28;20176;-72
2022/01/30 08:37:06;;;;;;;2.37;1.73;;;;;;;5.56;100.00;96064.78;5098578;28;20657;-65
2022/01/30 08:39:33;;;;;;;2.50;1.40;;;;;;;5.54;100.00;96067.84;5098455;28;20187;-62
2022/01/30 08:41:59;;;;;;;3.57;1.40;;;;;;;5.73;100.00;96062.47;5098502;28;20180;-64
2022/01/30 08:44:24;;;;;;;5.83;2.80;;;;;;;5.85;100.00;96064.28;5115466;28;20280;-64
2022/01/30 08:46:49;;;;;;;2.57;1.80;;;;;;;5.98;100.00;96066.50;5098842;28;20184;-66
2022/01/30 08:49:14;;;;;;;3.93;2.10;;;;;;;6.20;100.00;96081.28;5098314;28;20176;-66
2022/01/30 08:51:40;;;;;;;6.03;1.53;;;;;;;6.39;100.00;96083.94;5098414;28;20196;-66
2022/01/30 08:54:05;;;;;;;3.03;1.30;;;;;;;6.67;100.00;96087.19;5098112;28;20184;-50
2022/01/30 08:56:30;;;;;;;1.63;1.20;;;;;;;7.08;100.00;96088.25;5098515;28;20192;-59
2022/01/30 08:58:57;;;;;;;2.77;1.53;;;;;;;7.53;100.00;96097.13;5098457;28;20195;-59
2022/01/30 09:01:23;;;;;;;2.63;1.40;;;;;;;7.89;100.00;96099.19;5097976;28;20267;-59
2022/01/30 09:03:48;;;;;;;3.40;1.40;;;;;;;7.58;100.00;96085.16;5097840;28;20215;-59
2022/01/30 09:06:13;;;;;;;3.30;1.50;;;;;;;7.43;100.00;96105.91;5114949;28;20185;-59
2022/01/30 09:08:39;;;;;;;3.80;1.90;;;;;;;8.01;100.00;96101.69;5098474;28;20217;-60
2022/01/30 09:11:06;;;;;;;3.13;1.70;;;;;;;8.43;100.00;96110.41;5097467;28;20178;-72
2022/01/30 09:13:31;;;;;;;3.17;2.40;;;;;;;8.37;100.00;96098.28;5114842;28;20198;-73
2022/01/30 09:15:57;;;;;;;2.83;1.60;;;;;;;9.17;100.00;96124.75;5098571;28;20191;-74
2022/01/30 09:18:26;;;;;;;4.47;1.70;;;;;;;10.33;100.00;96120.91;5098173;28;20187;-74
2022/01/30 09:20:52;;;;;;;2.77;1.80;;;;;;;11.04;100.00;96121.94;5114873;28;20188;-75
2022/01/30 09:23:18;;;;;;;3.30;1.50;;;;;;;10.73;100.00;96112.47;5098068;28;20194;-73
2022/01/30 09:25:44;;;;;;;3.43;1.67;;;;;;;10.24;100.00;96127.91;5097675;28;20271;-70
2022/01/30 09:28:09;;;;;;;3.27;1.60;;;;;;;9.86;100.00;96130.00;5097677;28;20211;-76
2022/01/30 09:30:35;;;;;;;3.70;1.63;;;;;;;10.43;100.00;96114.72;5114492;28;20283;-56
2022/01/30 09:33:00;;;;;;;5.33;3.10;;;;;;;10.38;100.00;96101.44;5097556;28;20268;-50
2022/01/30 09:35:26;;;;;;;3.37;1.60;;;;;;;10.76;100.00;96127.31;5097792;28;20203;-52
2022/01/30 09:37:51;;;;;;;4.43;2.00;;;;;;;11.33;100.00;96112.59;5097531;28;20209;-54
2022/01/30 09:40:18;;;;;;;5.20;2.37;;;;;;;10.39;100.00;96113.16;5097211;28;20272;-48
2022/01/30 09:42:45;;;;;;;5.23;2.33;;;;;;;9.59;100.00;96125.88;5097337;28;20178;-49
2022/01/30 09:45:14;;;;;;;5.40;2.23;;;;;;;8.75;100.00;96102.59;5097911;28;20220;-53
2022/01/30 09:47:40;;;;;;;4.43;2.00;;;;;;;8.26;100.00;96119.13;5097300;28;20254;-52
2022/01/30 09:50:07;;;;;;;4.07;2.17;;;;;;;7.99;100.00;96120.31;5114369;28;20191;-57
2022/01/30 09:52:33;;;;;;;4.10;2.03;;;;;;;7.53;100.00;96128.94;5114176;28;20247;-52
2022/01/30 09:54:58;;;;;;;4.47;1.80;;;;;;;7.63;100.00;96104.66;5097290;28;20233;-53
2022/01/30 09:57:23;;;;;;;4.13;2.07;;;;;;;7.58;100.00;96132.13;5097109;28;20274;-53
2022/01/30 09:59:49;;;;;;;6.33;2.10;;;;;;;7.57;100.00;96125.13;5097494;28;20225;-53
2022/01/30 10:02:14;;;;;;;4.80;2.13;;;;;;;7.55;100.00;96122.00;5097205;28;20187;-54
2022/01/30 10:04:40;;;;;;;5.80;2.67;;;;;;;7.50;100.00;96113.41;5113647;28;20207;-53
2022/01/30 10:07:16;;;;;;;5.97;2.53;;;;;;;7.31;100.00;96122.41;5096838;28;20263;-73
2022/01/30 10:09:48;;;;;;;4.17;1.97;;;;;;;7.35;100.00;96120.53;5097782;28;20269;-52
2022/01/30 10:12:34;;;;;;;5.97;2.10;;;;;;;7.17;100.00;96111.31;5114327;28;20187;-50
2022/01/30 10:15:06;;;;;;;4.37;2.00;;;;;;;7.60;100.00;96091.00;5114392;28;20187;-52
2022/01/30 10:17:38;;;;;;;6.33;2.20;;;;;;;7.76;100.00;96108.72;5097130;28;20184;-51
2022/01/30 10:20:05;;;;;;;7.67;2.13;;;;;;;7.64;100.00;96108.94;5114294;28;20178;-52
2022/01/30 10:22:31;;;;;;;9.17;2.70;;;;;;;7.63;100.00;96096.50;5095756;28;20183;-50
2022/01/30 10:24:57;;;;;;;8.13;2.70;;;;;;;8.00;100.00;96116.44;5096502;28;20224;-74
2022/01/30 10:27:25;;;;;;;8.03;2.60;;;;;;;8.30;100.00;96106.34;5096977;28;20191;-50
2022/01/30 10:30:02;;;;;;;5.67;2.37;;;;;;;8.69;100.00;96115.75;5113678;28;20203;-53
2022/01/30 10:32:27;;;;;;;8.70;5.10;;;;;;;8.91;100.00;96120.25;5097151;28;20183;-47
2022/01/30 10:35:08;;;;;;;7.37;2.67;;;;;;;8.73;100.00;96123.94;5097224;28;20202;-49
2022/01/30 10:37:38;;;;;;;7.83;2.53;;;;;;;8.80;100.00;96137.63;5113418;28;20192;-52
2022/01/30 10:40:14;;;;;;;5.87;2.40;;;;;;;8.75;100.00;96133.31;5096547;28;20180;-50
2022/01/30 10:42:51;;;;;;;4.70;3.27;;;;;;;9.36;100.00;96136.22;5114740;28;20176;-58
2022/01/30 10:45:32;;;;;;;5.00;2.47;;;;;;;9.91;100.00;96132.34;5113910;28;20199;-57
2022/01/30 10:48:28;;;;;;;6.73;2.43;;;;;;;10.13;100.00;96128.63;5096336;28;20283;-59
2022/01/30 10:50:55;;;;;;;5.20;2.40;;;;;;;10.63;100.00;96134.31;5093072;28;20194;-59
2022/01/30 10:53:23;;;;;;;6.20;2.50;;;;;;;10.71;100.00;96141.34;5096750;28;20194;-58
2022/01/30 10:55:50;;;;;;;5.43;2.43;;;;;;;10.65;100.00;96131.97;5096408;28;20190;-59
2022/01/30 10:58:24;;;;;;;8.20;2.47;;;;;;;10.59;100.00;96122.59;5113121;28;20198;-58
2022/01/30 11:00:58;;;;;;;4.93;2.60;;;;;;;10.68;100.00;96131.19;5113663;28;20198;-57
2022/01/30 11:03:45;;;;;;;4.97;2.23;;;;;;;10.56;100.00;96131.56;5095883;28;20281;-59
2022/01/30 11:06:13;;;;;;;7.87;3.03;;;;;;;10.52;100.00;96131.53;5113220;28;20214;-71
2022/01/30 11:08:43;;;;;;;5.97;2.60;;;;;;;10.44;100.00;96116.28;5095959;28;20184;-72
2022/01/30 11:19:16;;;;;;;6.40;3.33;;;;;;;9.37;100.00;96123.41;5114393;28;20241;-69
2022/01/30 11:21:43;;;;;;;6.53;3.30;;;;;;;9.40;100.00;96123.41;5095672;28;20201;-69
2022/01/30 11:24:12;;;;;;;7.33;2.47;;;;;;;9.15;100.00;96127.88;5113001;28;20300;-58
2022/01/30 11:26:38;;;;;;;5.60;2.23;;;;;;;8.93;100.00;96120.66;5113379;28;20193;-58
2022/01/30 11:29:07;;;;;;;6.27;2.70;;;;;;;8.94;100.00;96116.78;5096056;28;20540;-58
2022/01/30 11:31:34;;;;;;;6.57;2.27;;;;;;;8.96;100.00;96111.75;5095829;28;20180;-57
2022/01/30 11:34:00;;;;;;;6.63;2.60;;;;;;;8.80;100.00;96113.91;5115368;28;20188;-57
2022/01/30 11:36:26;;;;;;;7.60;2.60;;;;;;;8.75;100.00;96116.97;5116355;28;20189;-57
2022/01/30 11:38:51;;;;;;;4.93;2.27;;;;;;;8.71;100.00;96107.97;5099582;28;20280;-61
2022/01/30 11:41:19;;;;;;;9.57;2.70;;;;;;;8.50;100.00;96107.78;5099137;28;20191;-49
2022/01/30 11:44:18;;;;;;;7.07;2.50;;;;;;;8.24;100.00;96120.66;5098775;28;20190;-48
2022/01/30 11:46:56;;;;;;;6.47;2.23;;;;;;;7.83;100.00;96100.66;5099281;28;20195;-48
2022/01/30 11:49:22;;;;;;;8.43;2.40;;;;;;;7.77;100.00;96091.28;5099809;28;20184;-50
2022/01/30 11:51:51;;;;;;;4.57;2.00;;;;;;;7.92;100.00;96090.31;5099207;28;20187;-53
2022/01/30 11:54:42;;;;;;;5.17;2.03;;;;;;;7.89;100.00;96077.44;5098993;28;20217;-47
2022/01/30 11:57:20;;;;;;;3.93;1.80;;;;;;;7.97;100.00;96079.09;5098989;28;20244;-48
2022/01/30 11:59:47;;;;;;;7.07;2.10;;;;;;;7.95;100.00;96078.69;5098922;28;20220;-56
2022/01/30 12:02:25;;;;;;;6.33;2.40;;;;;;;7.90;100.00;96092.59;5115983;28;20190;-55
2022/01/30 12:05:03;;;;;;;4.27;2.33;;;;;;;8.04;100.00;96068.31;5117264;28;20206;-57
2022/01/30 12:07:42;;;;;;;7.13;2.17;;;;;;;8.13;100.00;96079.72;5098878;28;20252;-56
2022/01/30 12:10:16;;;;;;;7.97;2.20;;;;;;;8.05;100.00;96086.19;5116410;28;20191;-55
2022/01/30 12:13:03;;;;;;;11.13;2.10;;;;;;;8.03;100.00;96080.34;5099095;28;20228;-57
2022/01/30 12:15:39;;;;;;;6.40;2.27;;;;;;;8.00;100.00;96077.56;5098687;28;20194;-55
2022/01/30 12:18:12;;;;;;;5.10;2.00;;;;;;;8.02;100.00;96076.06;5115559;28;20182;-51
2022/01/30 12:20:59;;;;;;;11.47;3.77;;;;;;;8.11;100.00;96068.41;5115910;28;20197;-47
2022/01/30 12:23:26;;;;;;;9.10;2.63;;;;;;;7.99;100.00;96076.81;5115949;28;20180;-50
2022/01/30 12:26:03;;;;;;;6.63;2.37;;;;;;;7.97;100.00;96064.75;5098476;28;20196;-49
2022/01/30 12:28:51;;;;;;;4.83;2.40;;;;;;;8.02;100.00;96059.75;5115391;28;20181;-53
2022/01/30 12:31:38;;;;;;;6.20;2.30;;;;;;;8.02;100.00;96067.91;5098265;28;20277;-47
2022/01/30 12:34:10;;;;;;;6.80;2.30;;;;;;;8.03;100.00;96061.31;5115503;28;20209;-69
2022/01/30 12:36:40;;;;;;;4.67;1.90;;;;;;;8.08;100.00;96073.81;5115761;28;20190;-53
2022/01/30 12:39:11;;;;;;;9.13;2.50;;;;;;;8.09;100.00;96076.13;5098762;28;20185;-52